createdAt,value
2023-03-11T00:00:00.439Z,67.49
2023-03-11T00:00:17.013Z,67.92
2023-03-11T00:00:30.840Z,67.86
2023-03-11T00:00:47.185Z,67.47
2023-03-11T00:00:59.433Z,67.83
2023-03-11T00:01:11.731Z,68.29
2023-03-11T00:01:23.615Z,68.02
2023-03-11T00:01:35.590Z,67.91
2023-03-11T00:01:47.527Z,68.04
2023-03-11T00:01:59.454Z,67.88
2023-03-11T00:02:11.889Z,68.02
2023-03-11T00:02:23.889Z,69.03
2023-03-11T00:02:35.838Z,69.47
2023-03-11T00:02:49.757Z,69.36
2023-03-11T00:03:03.544Z,69.54
2023-03-11T00:03:19.258Z,69.95
2023-03-11T00:03:31.204Z,69.76
2023-03-11T00:03:43.089Z,69.99
2023-03-11T00:03:55.053Z,70.43
2023-03-11T00:04:07.406Z,71.07
2023-03-11T00:04:19.321Z,71.78
2023-03-11T00:04:31.319Z,71.23
2023-03-11T00:04:44.059Z,71.26
2023-03-11T00:04:55.993Z,71.72
2023-03-11T00:05:09.208Z,71.69
2023-03-11T00:05:27.904Z,71.44
2023-03-11T00:05:42.186Z,71.58
2023-03-11T00:05:57.469Z,71.64
2023-03-11T00:06:09.593Z,72.06
2023-03-11T00:06:21.629Z,71.85
2023-03-11T00:06:36.661Z,72.32
2023-03-11T00:06:48.605Z,71.74
2023-03-11T00:07:00.558Z,72.25
2023-03-11T00:07:13.510Z,72.58
2023-03-11T00:07:28.033Z,72.69
2023-03-11T00:07:40.114Z,72.32
2023-03-11T00:07:52.304Z,72.39
2023-03-11T00:08:06.589Z,72.46
2023-03-11T00:08:22.660Z,72.59
2023-03-11T00:08:34.642Z,73.29
2023-03-11T00:08:46.551Z,72.92
2023-03-11T00:08:58.456Z,72.77
2023-03-11T00:09:10.402Z,73.11
2023-03-11T00:09:22.349Z,73.70
2023-03-11T00:09:37.319Z,73.76
2023-03-11T00:09:49.281Z,73.07
2023-03-11T00:10:01.204Z,73.06
2023-03-11T00:10:19.101Z,72.56
2023-03-11T00:10:34.725Z,72.68
2023-03-11T00:10:48.292Z,72.17
2023-03-11T00:11:00.595Z,71.87
2023-03-11T00:11:12.621Z,71.56
2023-03-11T00:11:25.134Z,71.36
2023-03-11T00:11:37.118Z,71.16
2023-03-11T00:11:49.705Z,71.46
2023-03-11T00:12:03.336Z,71.12
2023-03-11T00:12:15.395Z,70.45
2023-03-11T00:12:27.284Z,69.94
2023-03-11T00:12:39.240Z,70.08
2023-03-11T00:12:51.728Z,69.80
2023-03-11T00:13:06.097Z,70.32
2023-03-11T00:13:18.434Z,69.87
2023-03-11T00:13:30.640Z,69.85
2023-03-11T00:13:42.587Z,70.42
2023-03-11T00:13:54.526Z,71.38
2023-03-11T00:14:06.473Z,71.20
2023-03-11T00:14:18.415Z,71.24
2023-03-11T00:14:30.519Z,71.29
2023-03-11T00:14:42.432Z,71.48
2023-03-11T00:14:54.369Z,71.78
2023-03-11T00:15:06.649Z,71.55
2023-03-11T00:15:18.704Z,71.93
2023-03-11T00:15:31.798Z,72.34
2023-03-11T00:15:47.063Z,72.28
2023-03-11T00:16:00.858Z,72.69
2023-03-11T00:16:13.098Z,73.18
2023-03-11T00:16:25.219Z,73.33
2023-03-11T00:16:37.251Z,72.92
2023-03-11T00:16:52.000Z,72.40
2023-03-11T00:17:04.057Z,72.81
2023-03-11T00:17:15.977Z,72.55
2023-03-11T00:17:28.013Z,72.74
2023-03-11T00:17:40.188Z,72.05
2023-03-11T00:17:52.413Z,72.82
2023-03-11T00:18:05.972Z,72.72
2023-03-11T00:18:18.610Z,72.97
2023-03-11T00:18:31.411Z,73.23
2023-03-11T00:18:43.548Z,73.25
2023-03-11T00:18:55.864Z,73.29
2023-03-11T00:19:07.779Z,73.28
2023-03-11T00:19:22.700Z,72.46
2023-03-11T00:19:34.679Z,72.64
2023-03-11T00:19:46.924Z,73.03
2023-03-11T00:19:58.930Z,73.20
2023-03-11T00:20:22.466Z,73.72
2023-03-11T00:20:37.506Z,72.95
2023-03-11T00:20:49.394Z,73.05
2023-03-11T00:21:01.383Z,73.33
2023-03-11T00:21:17.111Z,73.54
2023-03-11T00:21:30.143Z,72.84
2023-03-11T00:21:42.043Z,73.01
2023-03-11T00:21:54.007Z,73.03
2023-03-11T00:22:06.003Z,73.04
2023-03-11T00:22:17.972Z,73.47
2023-03-11T00:22:32.065Z,74.06
2023-03-11T00:22:44.006Z,74.16
2023-03-11T00:22:56.871Z,73.84
2023-03-11T00:23:13.520Z,73.56
2023-03-11T00:23:26.355Z,73.53
2023-03-11T00:23:38.607Z,73.32
2023-03-11T00:23:50.558Z,72.92
2023-03-11T00:24:03.585Z,72.54
2023-03-11T00:24:15.582Z,72.85
2023-03-11T00:24:28.142Z,72.04
2023-03-11T00:24:40.079Z,72.02
2023-03-11T00:24:51.978Z,72.61
2023-03-11T00:25:04.784Z,72.53
2023-03-11T00:25:18.164Z,73.16
2023-03-11T00:25:32.084Z,72.63
2023-03-11T00:25:46.093Z,72.47
2023-03-11T00:25:59.849Z,72.67
2023-03-11T00:26:12.018Z,72.22
2023-03-11T00:26:23.916Z,71.95
2023-03-11T00:26:35.859Z,71.51
2023-03-11T00:26:47.863Z,71.84
2023-03-11T00:26:59.820Z,71.43
2023-03-11T00:27:11.986Z,71.27
2023-03-11T00:27:24.825Z,71.34
2023-03-11T00:27:37.202Z,71.89
2023-03-11T00:27:50.157Z,71.46
2023-03-11T00:28:02.478Z,71.09
2023-03-11T00:28:16.076Z,70.73
2023-03-11T00:28:28.129Z,71.11
2023-03-11T00:28:40.102Z,71.43
2023-03-11T00:28:52.182Z,71.62
2023-03-11T00:29:04.166Z,72.31
2023-03-11T00:29:16.061Z,71.97
2023-03-11T00:29:27.964Z,71.84
2023-03-11T00:29:39.913Z,72.68
2023-03-11T00:29:51.872Z,73.25
2023-03-11T00:30:05.701Z,72.50
2023-03-11T00:30:18.941Z,72.69
2023-03-11T00:30:31.733Z,73.19
2023-03-11T00:30:45.673Z,72.89
2023-03-11T00:30:57.742Z,73.38
2023-03-11T00:31:12.790Z,73.40
2023-03-11T00:31:26.510Z,73.16
2023-03-11T00:31:38.448Z,72.90
2023-03-11T00:31:52.665Z,72.72
2023-03-11T00:32:07.605Z,72.60
2023-03-11T00:32:19.533Z,73.01
2023-03-11T00:32:31.556Z,72.78
2023-03-11T00:32:43.855Z,72.50
2023-03-11T00:32:57.915Z,72.44
2023-03-11T00:33:12.232Z,72.08
2023-03-11T00:33:24.346Z,71.90
2023-03-11T00:33:36.361Z,72.50
2023-03-11T00:33:48.588Z,72.89
2023-03-11T00:34:00.591Z,72.37
2023-03-11T00:34:12.522Z,72.20
2023-03-11T00:34:25.672Z,71.86
2023-03-11T00:34:37.602Z,71.91
2023-03-11T00:34:49.558Z,71.64
2023-03-11T00:35:01.601Z,71.83
2023-03-11T00:35:16.182Z,72.14
2023-03-11T00:35:30.854Z,71.87
2023-03-11T00:35:43.420Z,72.12
2023-03-11T00:35:55.440Z,71.92
2023-03-11T00:36:07.906Z,71.52
2023-03-11T00:36:34.026Z,71.22
2023-03-11T00:36:45.931Z,70.80
2023-03-11T00:36:57.934Z,70.60
2023-03-11T00:37:09.826Z,70.59
2023-03-11T00:37:21.775Z,70.97
2023-03-11T00:37:33.965Z,71.62
2023-03-11T00:37:48.966Z,71.47
2023-03-11T00:38:06.743Z,70.87
2023-03-11T00:38:18.834Z,70.46
2023-03-11T00:38:30.797Z,70.89
2023-03-11T00:38:42.723Z,71.09
2023-03-11T00:38:54.929Z,70.66
2023-03-11T00:39:07.021Z,70.48
2023-03-11T00:39:18.952Z,70.08
2023-03-11T00:39:30.858Z,71.37
2023-03-11T00:39:42.779Z,71.33
2023-03-11T00:39:54.673Z,70.92
2023-03-11T00:40:08.765Z,70.38
2023-03-11T00:40:21.883Z,70.57
2023-03-11T00:40:35.230Z,70.52
2023-03-11T00:40:48.743Z,70.26
2023-03-11T00:41:01.888Z,70.51
2023-03-11T00:41:16.803Z,70.38
2023-03-11T00:41:29.128Z,70.91
2023-03-11T00:41:41.104Z,70.35
2023-03-11T00:41:53.701Z,70.19
2023-03-11T00:42:07.111Z,69.77
2023-03-11T00:42:19.031Z,69.51
2023-03-11T00:42:30.954Z,69.61
2023-03-11T00:42:42.941Z,70.11
2023-03-11T00:42:54.985Z,70.37
2023-03-11T00:43:06.882Z,69.92
2023-03-11T00:43:18.928Z,69.73
2023-03-11T00:43:30.901Z,69.64
2023-03-11T00:43:43.584Z,70.30
2023-03-11T00:43:55.582Z,70.59
2023-03-11T00:44:07.562Z,70.41
2023-03-11T00:44:19.547Z,70.58
2023-03-11T00:44:31.442Z,70.15
2023-03-11T00:44:43.375Z,69.70
2023-03-11T00:44:55.288Z,70.04
2023-03-11T00:45:07.911Z,69.59
2023-03-11T00:45:20.348Z,69.74
2023-03-11T00:45:32.564Z,70.10
2023-03-11T00:45:44.545Z,70.49
2023-03-11T00:45:56.487Z,70.30
2023-03-11T00:46:12.678Z,70.30
2023-03-11T00:46:24.737Z,70.12
2023-03-11T00:46:36.830Z,69.98
2023-03-11T00:46:48.842Z,70.03
2023-03-11T00:47:00.838Z,69.15
2023-03-11T00:47:15.521Z,68.75
2023-03-11T00:47:27.521Z,68.82
2023-03-11T00:47:39.908Z,68.52
2023-03-11T00:47:53.872Z,68.51
2023-03-11T00:48:06.463Z,68.07
2023-03-11T00:48:18.466Z,68.23
2023-03-11T00:48:30.393Z,68.74
2023-03-11T00:48:42.282Z,69.82
2023-03-11T00:48:54.243Z,69.70
2023-03-11T00:49:06.137Z,69.70
2023-03-11T00:49:18.235Z,70.17
2023-03-11T00:49:30.132Z,70.06
2023-03-11T00:49:42.059Z,69.60
2023-03-11T00:49:54.029Z,70.10
2023-03-11T00:50:07.742Z,70.64
2023-03-11T00:50:23.659Z,70.32
2023-03-11T00:50:37.354Z,70.40
2023-03-11T00:50:50.418Z,69.94
2023-03-11T00:51:02.318Z,70.24
2023-03-11T00:51:15.591Z,69.83
2023-03-11T00:51:28.149Z,70.34
2023-03-11T00:51:40.185Z,69.29
2023-03-11T00:51:52.109Z,69.54
2023-03-11T00:52:04.711Z,68.77
2023-03-11T00:52:16.614Z,69.31
2023-03-11T00:52:31.599Z,68.99
2023-03-11T00:52:45.720Z,68.86
2023-03-11T00:52:58.574Z,69.00
2023-03-11T00:53:11.958Z,69.58
2023-03-11T00:53:23.864Z,69.35
2023-03-11T00:53:36.000Z,69.17
2023-03-11T00:53:48.045Z,69.00
2023-03-11T00:54:01.266Z,68.50
2023-03-11T00:54:13.488Z,67.74
2023-03-11T00:54:26.432Z,67.82
2023-03-11T00:54:38.328Z,67.43
2023-03-11T00:54:50.224Z,67.62
2023-03-11T00:55:04.272Z,67.39
2023-03-11T00:55:22.831Z,66.87
2023-03-11T00:55:38.065Z,66.74
2023-03-11T00:55:50.006Z,67.18
2023-03-11T00:56:07.635Z,66.64
2023-03-11T00:56:19.595Z,67.02
2023-03-11T00:56:31.657Z,66.97
2023-03-11T00:56:43.606Z,66.55
2023-03-11T00:56:55.610Z,66.05
2023-03-11T00:57:07.551Z,66.26
2023-03-11T00:57:19.486Z,66.12
2023-03-11T00:57:31.509Z,66.20
2023-03-11T00:57:43.976Z,66.68
2023-03-11T00:58:01.191Z,66.67
2023-03-11T00:58:13.599Z,66.50
2023-03-11T00:58:28.193Z,66.00
2023-03-11T00:58:41.350Z,66.58
2023-03-11T00:58:53.245Z,67.02
2023-03-11T00:59:05.122Z,66.92
2023-03-11T00:59:17.008Z,65.97
2023-03-11T00:59:29.287Z,65.56
2023-03-11T00:59:41.653Z,65.58
2023-03-11T00:59:53.548Z,65.59
2023-03-11T01:00:09.863Z,65.54
2023-03-11T01:00:23.490Z,66.08
2023-03-11T01:00:35.530Z,65.41
2023-03-11T01:00:48.603Z,65.83
2023-03-11T01:01:06.687Z,66.52
2023-03-11T01:01:20.382Z,65.26
2023-03-11T01:01:32.428Z,65.49
2023-03-11T01:01:44.431Z,65.71
2023-03-11T01:01:56.389Z,66.15
2023-03-11T01:02:08.378Z,66.18
2023-03-11T01:02:20.356Z,66.25
2023-03-11T01:02:32.546Z,65.88
2023-03-11T01:02:44.544Z,65.90
2023-03-11T01:02:56.992Z,65.89
2023-03-11T01:03:09.045Z,66.65
2023-03-11T01:03:21.051Z,66.41
2023-03-11T01:03:32.985Z,65.98
2023-03-11T01:03:45.518Z,66.12
2023-03-11T01:03:57.457Z,65.23
2023-03-11T01:04:09.420Z,65.38
2023-03-11T01:04:21.408Z,65.65
2023-03-11T01:04:33.521Z,65.44
2023-03-11T01:04:45.485Z,65.19
2023-03-11T01:04:57.508Z,65.68
2023-03-11T01:05:10.570Z,65.71
2023-03-11T01:05:26.740Z,66.15
2023-03-11T01:05:38.972Z,65.78
2023-03-11T01:05:50.943Z,66.31
2023-03-11T01:06:02.933Z,66.67
2023-03-11T01:06:16.765Z,66.75
2023-03-11T01:06:44.449Z,66.09
2023-03-11T01:06:57.301Z,65.71
2023-03-11T01:07:11.272Z,65.80
2023-03-11T01:07:23.801Z,66.23
2023-03-11T01:07:36.130Z,67.00
2023-03-11T01:07:48.835Z,66.02
2023-03-11T01:08:03.814Z,65.86
2023-03-11T01:08:15.737Z,65.38
2023-03-11T01:08:28.000Z,64.81
2023-03-11T01:08:40.751Z,65.10
2023-03-11T01:08:52.685Z,65.02
2023-03-11T01:09:05.490Z,64.77
2023-03-11T01:09:17.482Z,64.97
2023-03-11T01:09:29.374Z,64.96
2023-03-11T01:09:42.908Z,64.58
2023-03-11T01:09:54.869Z,64.28
2023-03-11T01:10:07.794Z,65.05
2023-03-11T01:10:20.298Z,64.33
2023-03-11T01:10:33.468Z,64.23
2023-03-11T01:10:45.393Z,64.31
2023-03-11T01:10:58.461Z,64.43
2023-03-11T01:11:10.473Z,65.29
2023-03-11T01:11:22.420Z,65.39
2023-03-11T01:11:34.530Z,65.69
2023-03-11T01:11:46.437Z,64.60
2023-03-11T01:11:58.349Z,64.67
2023-03-11T01:12:10.279Z,64.55
2023-03-11T01:12:22.213Z,64.92
2023-03-11T01:12:34.486Z,64.93
2023-03-11T01:12:47.766Z,64.36
2023-03-11T01:12:59.710Z,63.99
2023-03-11T01:13:11.593Z,64.63
2023-03-11T01:13:27.974Z,64.69
2023-03-11T01:13:41.820Z,64.48
2023-03-11T01:13:53.757Z,64.63
2023-03-11T01:14:05.742Z,65.41
2023-03-11T01:14:18.641Z,65.33
2023-03-11T01:14:30.542Z,65.13
2023-03-11T01:14:42.517Z,65.50
2023-03-11T01:14:55.528Z,65.23
2023-03-11T01:15:08.315Z,65.79
2023-03-11T01:15:30.288Z,66.47
2023-03-11T01:15:42.384Z,66.12
2023-03-11T01:15:55.478Z,65.70
2023-03-11T01:16:09.270Z,65.07
2023-03-11T01:16:21.559Z,65.23
2023-03-11T01:16:33.494Z,64.58
2023-03-11T01:16:46.382Z,64.12
2023-03-11T01:16:58.335Z,63.50
2023-03-11T01:17:10.289Z,63.55
2023-03-11T01:17:22.232Z,64.00
2023-03-11T01:17:35.046Z,63.76
2023-03-11T01:17:47.170Z,63.39
2023-03-11T01:17:59.274Z,63.05
2023-03-11T01:18:11.331Z,63.28
2023-03-11T01:18:23.802Z,63.58
2023-03-11T01:18:35.730Z,64.17
2023-03-11T01:18:47.736Z,63.46
2023-03-11T01:18:59.686Z,63.82
2023-03-11T01:19:11.942Z,63.06
2023-03-11T01:19:23.860Z,63.23
2023-03-11T01:19:35.905Z,63.37
2023-03-11T01:19:48.936Z,63.04
2023-03-11T01:20:00.885Z,63.02
2023-03-11T01:20:13.444Z,63.19
2023-03-11T01:20:25.707Z,63.81
2023-03-11T01:20:38.764Z,63.51
2023-03-11T01:20:51.066Z,63.36
2023-03-11T01:21:03.222Z,63.47
2023-03-11T01:21:15.505Z,63.31
2023-03-11T01:21:28.096Z,62.85
2023-03-11T01:21:40.356Z,63.83
2023-03-11T01:21:52.290Z,64.47
2023-03-11T01:22:04.591Z,64.56
2023-03-11T01:22:16.989Z,64.31
2023-03-11T01:22:28.970Z,63.88
2023-03-11T01:22:41.012Z,63.73
2023-03-11T01:22:53.969Z,63.89
2023-03-11T01:23:06.728Z,63.88
2023-03-11T01:23:19.791Z,64.36
2023-03-11T01:23:32.571Z,64.39
2023-03-11T01:23:44.762Z,64.02
2023-03-11T01:23:56.652Z,65.01
2023-03-11T01:24:08.784Z,64.69
2023-03-11T01:24:20.681Z,64.63
2023-03-11T01:24:32.601Z,64.45
2023-03-11T01:24:46.192Z,65.05
2023-03-11T01:24:58.086Z,64.92
2023-03-11T01:25:16.399Z,64.93
2023-03-11T01:25:28.597Z,64.71
2023-03-11T01:25:40.649Z,64.62
2023-03-11T01:25:52.613Z,64.68
2023-03-11T01:26:04.711Z,64.46
2023-03-11T01:26:16.666Z,64.63
2023-03-11T01:26:28.570Z,64.67
2023-03-11T01:26:40.522Z,64.83
2023-03-11T01:26:52.417Z,64.57
2023-03-11T01:27:04.456Z,63.58
2023-03-11T01:27:16.401Z,64.46
2023-03-11T01:27:28.722Z,64.28
2023-03-11T01:27:40.971Z,63.91
2023-03-11T01:27:52.876Z,63.31
2023-03-11T01:28:05.833Z,63.45
2023-03-11T01:28:17.861Z,63.34
2023-03-11T01:28:29.829Z,63.65
2023-03-11T01:28:41.798Z,63.62
2023-03-11T01:28:53.703Z,63.63
2023-03-11T01:29:05.605Z,63.19
2023-03-11T01:29:17.541Z,63.79
2023-03-11T01:29:29.476Z,63.23
2023-03-11T01:29:41.458Z,63.71
2023-03-11T01:29:53.435Z,63.36
2023-03-11T01:30:06.326Z,64.05
2023-03-11T01:30:21.650Z,64.26
2023-03-11T01:30:34.814Z,63.38
2023-03-11T01:30:46.766Z,63.76
2023-03-11T01:30:58.778Z,63.77
2023-03-11T01:31:11.251Z,63.53
2023-03-11T01:31:23.251Z,64.55
2023-03-11T01:31:35.585Z,64.31
2023-03-11T01:31:47.678Z,64.26
2023-03-11T01:31:59.808Z,64.03
2023-03-11T01:32:11.771Z,64.40
2023-03-11T01:32:23.968Z,64.48
2023-03-11T01:32:36.017Z,63.82
2023-03-11T01:32:48.286Z,64.31
2023-03-11T01:33:03.805Z,64.28
2023-03-11T01:33:20.967Z,64.75
2023-03-11T01:33:32.918Z,64.03
2023-03-11T01:33:44.855Z,64.37
2023-03-11T01:33:58.809Z,63.07
2023-03-11T01:34:10.834Z,62.70
2023-03-11T01:34:22.733Z,63.06
2023-03-11T01:34:36.089Z,62.96
2023-03-11T01:34:48.069Z,63.42
2023-03-11T01:35:00.038Z,63.35
2023-03-11T01:35:14.505Z,63.52
2023-03-11T01:35:28.806Z,63.28
2023-03-11T01:35:42.252Z,63.83
2023-03-11T01:35:54.360Z,63.44
2023-03-11T01:36:06.901Z,64.65
2023-03-11T01:36:18.857Z,64.46
2023-03-11T01:36:30.800Z,64.04
2023-03-11T01:36:42.750Z,63.66
2023-03-11T01:36:54.743Z,63.94
2023-03-11T01:37:06.706Z,64.01
2023-03-11T01:37:20.114Z,63.44
2023-03-11T01:37:32.117Z,63.77
2023-03-11T01:37:45.338Z,64.12
2023-03-11T01:37:58.418Z,63.97
2023-03-11T01:38:11.233Z,63.58
2023-03-11T01:38:23.189Z,63.55
2023-03-11T01:38:35.162Z,63.97
2023-03-11T01:38:48.276Z,64.65
2023-03-11T01:39:00.187Z,64.72
2023-03-11T01:39:12.132Z,64.10
2023-03-11T01:39:24.065Z,64.40
2023-03-11T01:39:36.063Z,63.89
2023-03-11T01:39:48.053Z,64.07
2023-03-11T01:39:59.970Z,64.36
2023-03-11T01:40:19.847Z,64.10
2023-03-11T01:40:33.089Z,64.86
2023-03-11T01:40:48.299Z,64.64
2023-03-11T01:41:00.415Z,64.77
2023-03-11T01:41:12.788Z,64.33
2023-03-11T01:41:24.738Z,64.38
2023-03-11T01:41:36.785Z,64.02
2023-03-11T01:41:48.683Z,64.53
2023-03-11T01:42:00.791Z,65.41
2023-03-11T01:42:12.776Z,64.87
2023-03-11T01:42:24.726Z,64.80
2023-03-11T01:42:36.704Z,64.12
2023-03-11T01:42:48.667Z,63.96
2023-03-11T01:43:01.680Z,64.48
2023-03-11T01:43:41.371Z,64.40
2023-03-11T01:43:54.740Z,63.83
2023-03-11T01:44:07.069Z,64.05
2023-03-11T01:44:19.175Z,63.83
2023-03-11T01:44:31.151Z,64.17
2023-03-11T01:44:46.118Z,64.26
2023-03-11T01:44:58.098Z,64.36
2023-03-11T01:45:36.376Z,64.67
2023-03-11T01:45:51.011Z,64.72
2023-03-11T01:46:07.954Z,65.30
2023-03-11T01:46:22.767Z,64.83
2023-03-11T01:47:02.375Z,65.09
2023-03-11T01:47:14.224Z,64.99
2023-03-11T01:47:38.587Z,64.92
2023-03-11T01:47:50.609Z,65.34
2023-03-11T01:48:02.929Z,65.56
2023-03-11T01:48:14.893Z,65.68
2023-03-11T01:48:26.839Z,65.60
2023-03-11T01:48:39.024Z,65.93
2023-03-11T01:48:56.495Z,65.92
2023-03-11T01:49:12.246Z,65.84
2023-03-11T01:49:24.218Z,66.29
2023-03-11T01:49:41.778Z,65.57
2023-03-11T01:49:53.674Z,65.74
2023-03-11T01:50:10.826Z,66.13
2023-03-11T01:50:23.212Z,66.27
2023-03-11T01:50:40.249Z,66.30
2023-03-11T01:50:52.354Z,66.62
2023-03-11T01:51:06.238Z,66.74
2023-03-11T01:51:27.464Z,66.49
2023-03-11T01:51:44.750Z,66.89
2023-03-11T01:52:07.997Z,66.38
2023-03-11T01:52:21.078Z,66.74
2023-03-11T01:52:33.290Z,67.31
2023-03-11T01:52:45.667Z,67.02
2023-03-11T01:52:57.643Z,66.83
2023-03-11T01:53:10.979Z,66.67
2023-03-11T01:53:25.040Z,66.56
2023-03-11T01:53:36.990Z,66.95
2023-03-11T01:53:48.950Z,67.08
2023-03-11T01:54:06.880Z,67.59
2023-03-11T01:54:23.909Z,67.12
2023-03-11T01:54:39.522Z,67.14
2023-03-11T01:54:52.004Z,67.16
2023-03-11T01:55:06.215Z,67.48
2023-03-11T01:55:19.610Z,67.65
2023-03-11T01:55:32.500Z,67.67
2023-03-11T01:55:47.711Z,67.95
2023-03-11T01:56:02.548Z,67.96
2023-03-11T01:56:14.778Z,68.11
2023-03-11T01:56:28.292Z,68.35
2023-03-11T01:56:41.993Z,67.98
2023-03-11T01:56:55.212Z,68.44
2023-03-11T01:57:12.424Z,68.47
2023-03-11T01:57:24.879Z,68.60
2023-03-11T01:57:40.220Z,68.60
2023-03-11T01:57:53.246Z,67.82
2023-03-11T01:58:11.791Z,68.33
2023-03-11T01:58:26.947Z,68.46
2023-03-11T01:58:44.959Z,68.11
2023-03-11T01:58:57.696Z,68.02
2023-03-11T01:59:13.546Z,68.27
2023-03-11T01:59:30.490Z,68.21
2023-03-11T01:59:50.751Z,68.01
2023-03-11T02:00:07.706Z,67.60
2023-03-11T02:00:20.087Z,67.43
2023-03-11T02:00:32.148Z,67.06
2023-03-11T02:00:44.552Z,67.49
2023-03-11T02:00:57.047Z,67.44
2023-03-11T02:01:08.983Z,67.33
2023-03-11T02:01:22.105Z,67.88
2023-03-11T02:01:36.480Z,67.89
2023-03-11T02:01:59.306Z,67.59
2023-03-11T02:02:32.410Z,67.25
2023-03-11T02:02:51.770Z,67.00
2023-03-11T02:03:11.135Z,66.82
2023-03-11T02:03:32.241Z,67.02
2023-03-11T02:03:44.188Z,67.51
2023-03-11T02:03:57.736Z,67.19
2023-03-11T02:04:09.905Z,67.32
2023-03-11T02:04:21.880Z,67.47
2023-03-11T02:04:35.776Z,67.68
2023-03-11T02:04:49.494Z,67.14
2023-03-11T02:05:02.365Z,67.20
2023-03-11T02:05:14.418Z,67.90
2023-03-11T02:05:26.582Z,67.20
2023-03-11T02:05:39.887Z,66.61
2023-03-11T02:05:53.860Z,66.45
2023-03-11T02:06:25.818Z,66.23
2023-03-11T02:06:38.159Z,66.13
2023-03-11T02:06:53.705Z,66.25
2023-03-11T02:07:09.325Z,66.28
2023-03-11T02:07:23.083Z,65.88
2023-03-11T02:07:38.360Z,65.92
2023-03-11T02:07:52.409Z,66.33
2023-03-11T02:08:04.658Z,66.32
2023-03-11T02:08:16.675Z,65.94
2023-03-11T02:08:30.002Z,65.67
2023-03-11T02:08:43.952Z,65.77
2023-03-11T02:08:56.045Z,66.12
2023-03-11T02:09:08.540Z,65.89
2023-03-11T02:09:22.238Z,65.97
2023-03-11T02:09:34.215Z,66.55
2023-03-11T02:09:48.679Z,65.97
2023-03-11T02:10:01.893Z,66.17
2023-03-11T02:10:14.325Z,66.40
2023-03-11T02:10:26.352Z,66.13
2023-03-11T02:10:41.592Z,66.51
2023-03-11T02:10:54.213Z,66.98
2023-03-11T02:11:09.929Z,66.91
2023-03-11T02:11:29.038Z,66.44
2023-03-11T02:11:41.024Z,67.11
2023-03-11T02:11:53.353Z,66.90
2023-03-11T02:12:08.252Z,66.96
2023-03-11T02:12:20.680Z,66.98
2023-03-11T02:12:36.685Z,67.65
2023-03-11T02:12:50.625Z,66.89
2023-03-11T02:13:03.817Z,66.52
2023-03-11T02:13:16.669Z,66.60
2023-03-11T02:13:29.843Z,66.25
2023-03-11T02:13:43.656Z,66.82
2023-03-11T02:14:01.003Z,66.06
2023-03-11T02:14:13.432Z,66.74
2023-03-11T02:14:27.609Z,65.83
2023-03-11T02:14:43.450Z,65.81
2023-03-11T02:14:55.453Z,65.77
2023-03-11T02:15:09.421Z,66.01
2023-03-11T02:15:21.389Z,65.66
2023-03-11T02:15:33.660Z,66.10
2023-03-11T02:15:46.163Z,66.56
2023-03-11T02:16:00.543Z,66.21
2023-03-11T02:16:14.275Z,66.05
2023-03-11T02:16:40.993Z,66.28
2023-03-11T02:16:53.304Z,66.12
2023-03-11T02:17:07.898Z,66.24
2023-03-11T02:17:20.618Z,65.92
2023-03-11T02:17:33.179Z,65.26
2023-03-11T02:17:45.296Z,65.72
2023-03-11T02:17:58.324Z,66.07
2023-03-11T02:18:14.523Z,66.21
2023-03-11T02:18:26.517Z,66.19
2023-03-11T02:18:38.733Z,66.74
2023-03-11T02:18:50.773Z,66.20
2023-03-11T02:19:25.808Z,66.21
2023-03-11T02:19:46.500Z,65.96
2023-03-11T02:20:16.545Z,65.51
2023-03-11T02:20:40.592Z,64.86
2023-03-11T02:21:03.467Z,64.65
2023-03-11T02:21:34.738Z,64.40
2023-03-11T02:21:46.837Z,64.52
2023-03-11T02:21:59.299Z,64.57
2023-03-11T02:22:13.576Z,65.03
2023-03-11T02:22:29.030Z,65.04
2023-03-11T02:22:42.682Z,64.95
2023-03-11T02:22:57.271Z,64.38
2023-03-11T02:23:09.976Z,64.42
2023-03-11T02:23:27.098Z,64.62
2023-03-11T02:24:02.569Z,64.29
2023-03-11T02:24:23.015Z,64.74
2023-03-11T02:24:42.085Z,64.87
2023-03-11T02:25:09.342Z,65.60
2023-03-11T02:25:30.805Z,65.00
2023-03-11T02:25:59.178Z,64.11
2023-03-11T02:26:15.166Z,63.91
2023-03-11T02:26:39.425Z,64.12
2023-03-11T02:27:08.007Z,64.73
2023-03-11T02:27:22.064Z,64.09
2023-03-11T02:27:38.604Z,64.01
2023-03-11T02:27:53.533Z,64.98
2023-03-11T02:28:10.071Z,64.57
2023-03-11T02:28:23.035Z,64.80
2023-03-11T02:28:37.702Z,64.73
2023-03-11T02:28:50.530Z,64.69
2023-03-11T02:29:05.799Z,64.55
2023-03-11T02:29:19.834Z,64.03
2023-03-11T02:29:33.589Z,64.75
2023-03-11T02:29:49.735Z,64.46
2023-03-11T02:30:02.319Z,64.65
2023-03-11T02:30:16.314Z,64.85
2023-03-11T02:30:29.190Z,64.33
2023-03-11T02:30:43.270Z,64.38
2023-03-11T02:30:56.847Z,64.55
2023-03-11T02:31:08.904Z,64.31
2023-03-11T02:31:21.817Z,64.70
2023-03-11T02:31:36.207Z,64.35
2023-03-11T02:31:49.582Z,64.01
2023-03-11T02:32:08.797Z,64.77
2023-03-11T02:32:21.461Z,64.87
2023-03-11T02:32:34.398Z,64.29
2023-03-11T02:32:48.468Z,63.87
2023-03-11T02:33:02.150Z,64.20
2023-03-11T02:33:15.120Z,64.01
2023-03-11T02:33:31.331Z,64.41
2023-03-11T02:33:46.440Z,64.39
2023-03-11T02:34:01.576Z,65.06
2023-03-11T02:34:23.537Z,65.03
2023-03-11T02:34:38.683Z,65.09
2023-03-11T02:34:50.623Z,65.11
2023-03-11T02:35:03.368Z,64.90
2023-03-11T02:35:16.799Z,64.67
2023-03-11T02:35:29.680Z,64.50
2023-03-11T02:35:41.630Z,65.02
2023-03-11T02:35:53.594Z,65.02
2023-03-11T02:36:06.099Z,64.85
2023-03-11T02:36:49.312Z,64.39
2023-03-11T02:37:05.375Z,64.40
2023-03-11T02:37:17.863Z,64.94
2023-03-11T02:37:29.833Z,64.93
2023-03-11T02:37:49.710Z,64.91
2023-03-11T02:38:01.714Z,64.41
2023-03-11T02:38:14.326Z,64.19
2023-03-11T02:38:26.268Z,63.78
2023-03-11T02:38:38.159Z,63.84
2023-03-11T02:38:50.059Z,64.35
2023-03-11T02:39:02.999Z,64.36
2023-03-11T02:39:14.969Z,64.13
2023-03-11T02:39:36.714Z,63.58
2023-03-11T02:39:51.616Z,64.02
2023-03-11T02:40:34.088Z,63.73
2023-03-11T02:40:55.714Z,63.81
2023-03-11T02:41:07.822Z,64.27
2023-03-11T02:41:19.811Z,64.37
2023-03-11T02:41:35.013Z,63.55
2023-03-11T02:41:47.185Z,64.42
2023-03-11T02:42:00.471Z,64.17
2023-03-11T02:42:18.338Z,64.24
2023-03-11T02:42:32.620Z,64.33
2023-03-11T02:42:44.550Z,64.31
2023-03-11T02:42:59.660Z,63.68
2023-03-11T02:43:14.704Z,63.86
2023-03-11T02:43:33.564Z,63.72
2023-03-11T02:43:46.810Z,63.94
2023-03-11T02:44:00.170Z,63.90
2023-03-11T02:44:16.311Z,63.71
2023-03-11T02:44:28.731Z,63.89
2023-03-11T02:44:42.633Z,64.19
2023-03-11T02:45:10.779Z,63.54
2023-03-11T02:45:25.470Z,63.54
2023-03-11T02:45:40.019Z,63.65
2023-03-11T02:45:52.027Z,63.34
2023-03-11T02:46:06.726Z,63.65
2023-03-11T02:46:19.724Z,63.95
2023-03-11T02:46:31.704Z,64.27
2023-03-11T02:46:45.144Z,64.10
2023-03-11T02:46:57.440Z,63.48
2023-03-11T02:47:09.749Z,63.32
2023-03-11T02:47:24.716Z,63.68
2023-03-11T02:47:38.646Z,63.50
2023-03-11T02:47:52.073Z,63.54
2023-03-11T02:48:04.422Z,63.47
2023-03-11T02:48:16.939Z,63.54
2023-03-11T02:48:30.304Z,63.61
2023-03-11T02:48:43.348Z,64.17
2023-03-11T02:48:56.271Z,63.95
2023-03-11T02:49:09.160Z,64.20
2023-03-11T02:49:22.732Z,64.20
2023-03-11T02:49:35.745Z,63.35
2023-03-11T02:49:48.233Z,63.94
2023-03-11T02:50:00.181Z,63.62
2023-03-11T02:50:15.349Z,63.68
2023-03-11T02:50:29.239Z,63.70
2023-03-11T02:50:41.477Z,63.75
2023-03-11T02:50:53.488Z,63.66
2023-03-11T02:51:06.041Z,63.72
2023-03-11T02:51:17.986Z,63.75
2023-03-11T02:51:29.910Z,63.84
2023-03-11T02:51:41.856Z,63.95
2023-03-11T02:51:53.830Z,63.30
2023-03-11T02:52:06.357Z,63.12
2023-03-11T02:52:50.077Z,63.36
2023-03-11T02:53:02.028Z,63.46
2023-03-11T02:53:14.390Z,63.20
2023-03-11T02:53:28.738Z,63.29
2023-03-11T02:53:49.258Z,63.18
2023-03-11T02:54:04.771Z,63.38
2023-03-11T02:54:16.685Z,63.28
2023-03-11T02:54:28.611Z,62.68
2023-03-11T02:54:40.481Z,63.33
2023-03-11T02:54:52.397Z,63.51
2023-03-11T02:55:05.649Z,62.69
2023-03-11T02:55:20.165Z,63.41
2023-03-11T02:55:32.466Z,63.38
2023-03-11T02:55:44.393Z,63.32
2023-03-11T02:55:59.079Z,63.17
2023-03-11T02:56:10.963Z,63.22
2023-03-11T02:56:23.015Z,63.60
2023-03-11T02:56:35.015Z,63.37
2023-03-11T02:56:46.894Z,63.43
2023-03-11T02:56:58.805Z,63.48